sensor_id;sensor_type;location;lat;lon;timestamp;P1;durP1;ratioP1;P2;durP2;ratioP2
68475;SDS011;55464;48.266;14.188;2023-05-20T00:00:25;6.95;;;4.35;;
68475;SDS011;55464;48.266;14.188;2023-05-20T00:02:51;4.28;;;3.88;;
68475;SDS011;55464;48.266;14.188;2023-05-20T00:05:16;5.75;;;4.05;;
68475;SDS011;55464;48.266;14.188;2023-05-20T00:07:42;4.18;;;3.78;;
68475;SDS011;55464;48.266;14.188;2023-05-20T00:10:07;6.95;;;4.07;;
68475;SDS011;55464;48.266;14.188;2023-05-20T00:12:33;5.25;;;3.92;;
68475;SDS011;55464;48.266;14.188;2023-05-20T00:14:59;6.03;;;3.92;;
68475;SDS011;55464;48.266;14.188;2023-05-20T00:17:25;4.85;;;4.20;;
68475;SDS011;55464;48.266;14.188;2023-05-20T00:19:52;4.35;;;3.53;;
68475;SDS011;55464;48.266;14.188;2023-05-20T00:22:18;5.53;;;3.70;;
68475;SDS011;55464;48.266;14.188;2023-05-20T00:24:43;6.00;;;3.63;;
68475;SDS011;55464;48.266;14.188;2023-05-20T00:27:08;5.53;;;4.30;;
68475;SDS011;55464;48.266;14.188;2023-05-20T00:29:34;8.77;;;4.15;;
68475;SDS011;55464;48.266;14.188;2023-05-20T00:31:59;7.55;;;4.15;;
68475;SDS011;55464;48.266;14.188;2023-05-20T00:34:25;6.03;;;4.18;;
68475;SDS011;55464;48.266;14.188;2023-05-20T00:36:50;4.43;;;3.90;;
68475;SDS011;55464;48.266;14.188;2023-05-20T00:39:16;4.82;;;4.18;;
68475;SDS011;55464;48.266;14.188;2023-05-20T00:41:41;6.03;;;4.13;;
68475;SDS011;55464;48.266;14.188;2023-05-20T00:44:06;6.00;;;4.20;;
68475;SDS011;55464;48.266;14.188;2023-05-20T00:46:32;6.53;;;4.25;;
68475;SDS011;55464;48.266;14.188;2023-05-20T00:48:57;5.07;;;4.43;;
68475;SDS011;55464;48.266;14.188;2023-05-20T00:51:23;5.90;;;4.97;;
68475;SDS011;55464;48.266;14.188;2023-05-20T00:53:48;5.15;;;4.10;;
68475;SDS011;55464;48.266;14.188;2023-05-20T00:56:15;5.90;;;4.00;;
68475;SDS011;55464;48.266;14.188;2023-05-20T00:58:41;6.05;;;4.45;;
68475;SDS011;55464;48.266;14.188;2023-05-20T01:01:07;4.95;;;4.40;;
68475;SDS011;55464;48.266;14.188;2023-05-20T01:03:32;4.93;;;4.18;;
68475;SDS011;55464;48.266;14.188;2023-05-20T01:05:58;6.70;;;4.28;;
68475;SDS011;55464;48.266;14.188;2023-05-20T01:08:25;6.75;;;4.13;;
68475;SDS011;55464;48.266;14.188;2023-05-20T01:11:15;5.68;;;4.30;;
68475;SDS011;55464;48.266;14.188;2023-05-20T01:13:59;6.15;;;3.88;;
68475;SDS011;55464;48.266;14.188;2023-05-20T01:16:28;4.70;;;4.15;;
68475;SDS011;55464;48.266;14.188;2023-05-20T01:18:57;4.85;;;4.32;;
68475;SDS011;55464;48.266;14.188;2023-05-20T01:21:26;4.85;;;4.35;;
68475;SDS011;55464;48.266;14.188;2023-05-20T01:23:54;7.22;;;4.07;;
68475;SDS011;55464;48.266;14.188;2023-05-20T01:26:20;4.85;;;4.35;;
68475;SDS011;55464;48.266;14.188;2023-05-20T01:28:45;4.97;;;4.25;;
68475;SDS011;55464;48.266;14.188;2023-05-20T01:31:13;3.95;;;3.55;;
68475;SDS011;55464;48.266;14.188;2023-05-20T01:33:43;3.95;;;3.63;;
68475;SDS011;55464;48.266;14.188;2023-05-20T01:36:09;5.68;;;4.45;;
68475;SDS011;55464;48.266;14.188;2023-05-20T01:38:36;4.50;;;3.97;;
68475;SDS011;55464;48.266;14.188;2023-05-20T01:41:03;4.22;;;3.85;;
68475;SDS011;55464;48.266;14.188;2023-05-20T01:43:30;4.40;;;4.00;;
68475;SDS011;55464;48.266;14.188;2023-05-20T01:45:56;10.82;;;4.75;;
68475;SDS011;55464;48.266;14.188;2023-05-20T01:48:21;10.48;;;5.43;;
68475;SDS011;55464;48.266;14.188;2023-05-20T01:50:47;4.47;;;3.97;;
68475;SDS011;55464;48.266;14.188;2023-05-20T01:53:12;4.20;;;3.80;;
68475;SDS011;55464;48.266;14.188;2023-05-20T01:55:38;5.50;;;3.92;;
68475;SDS011;55464;48.266;14.188;2023-05-20T01:58:03;4.75;;;4.05;;
68475;SDS011;55464;48.266;14.188;2023-05-20T02:00:29;9.00;;;4.68;;
68475;SDS011;55464;48.266;14.188;2023-05-20T02:02:56;5.15;;;4.22;;
68475;SDS011;55464;48.266;14.188;2023-05-20T02:05:21;5.63;;;4.50;;
68475;SDS011;55464;48.266;14.188;2023-05-20T02:07:47;8.57;;;4.40;;
68475;SDS011;55464;48.266;14.188;2023-05-20T02:10:12;7.40;;;4.55;;
68475;SDS011;55464;48.266;14.188;2023-05-20T02:12:37;4.47;;;4.07;;
68475;SDS011;55464;48.266;14.188;2023-05-20T02:15:03;4.60;;;4.20;;
68475;SDS011;55464;48.266;14.188;2023-05-20T02:17:29;5.72;;;5.13;;
68475;SDS011;55464;48.266;14.188;2023-05-20T02:19:54;7.32;;;4.65;;
68475;SDS011;55464;48.266;14.188;2023-05-20T02:22:20;7.88;;;4.90;;
68475;SDS011;55464;48.266;14.188;2023-05-20T02:24:45;5.13;;;4.57;;
68475;SDS011;55464;48.266;14.188;2023-05-20T02:27:11;6.15;;;5.00;;
68475;SDS011;55464;48.266;14.188;2023-05-20T02:29:37;5.82;;;4.70;;
68475;SDS011;55464;48.266;14.188;2023-05-20T02:32:02;7.05;;;5.07;;
68475;SDS011;55464;48.266;14.188;2023-05-20T02:34:28;6.88;;;5.10;;
68475;SDS011;55464;48.266;14.188;2023-05-20T02:36:55;9.05;;;4.68;;
68475;SDS011;55464;48.266;14.188;2023-05-20T02:39:20;7.90;;;5.22;;
68475;SDS011;55464;48.266;14.188;2023-05-20T02:41:46;5.78;;;5.03;;
68475;SDS011;55464;48.266;14.188;2023-05-20T02:44:12;8.30;;;4.97;;
68475;SDS011;55464;48.266;14.188;2023-05-20T02:46:38;7.07;;;5.00;;
68475;SDS011;55464;48.266;14.188;2023-05-20T02:49:03;7.00;;;5.55;;
68475;SDS011;55464;48.266;14.188;2023-05-20T02:51:29;5.93;;;5.03;;
68475;SDS011;55464;48.266;14.188;2023-05-20T02:53:57;10.85;;;5.13;;
68475;SDS011;55464;48.266;14.188;2023-05-20T02:56:23;6.00;;;5.40;;
68475;SDS011;55464;48.266;14.188;2023-05-20T02:58:48;6.90;;;5.30;;
68475;SDS011;55464;48.266;14.188;2023-05-20T03:01:14;6.07;;;5.38;;
68475;SDS011;55464;48.266;14.188;2023-05-20T03:03:39;6.68;;;5.18;;
68475;SDS011;55464;48.266;14.188;2023-05-20T03:06:05;8.32;;;6.50;;
68475;SDS011;55464;48.266;14.188;2023-05-20T03:08:31;8.23;;;5.35;;
68475;SDS011;55464;48.266;14.188;2023-05-20T03:11:00;7.18;;;6.15;;
68475;SDS011;55464;48.266;14.188;2023-05-20T03:13:25;6.43;;;5.65;;
68475;SDS011;55464;48.266;14.188;2023-05-20T03:15:51;7.78;;;6.05;;
68475;SDS011;55464;48.266;14.188;2023-05-20T03:18:17;7.80;;;5.75;;
68475;SDS011;55464;48.266;14.188;2023-05-20T03:20:42;9.48;;;6.07;;
68475;SDS011;55464;48.266;14.188;2023-05-20T03:23:08;9.52;;;6.65;;
68475;SDS011;55464;48.266;14.188;2023-05-20T03:25:33;9.57;;;6.70;;
68475;SDS011;55464;48.266;14.188;2023-05-20T03:27:59;10.40;;;6.72;;
68475;SDS011;55464;48.266;14.188;2023-05-20T03:30:27;7.97;;;6.13;;
68475;SDS011;55464;48.266;14.188;2023-05-20T03:32:54;9.52;;;6.18;;
68475;SDS011;55464;48.266;14.188;2023-05-20T03:35:21;8.27;;;6.30;;
68475;SDS011;55464;48.266;14.188;2023-05-20T03:37:50;7.47;;;6.35;;
68475;SDS011;55464;48.266;14.188;2023-05-20T03:40:17;7.55;;;6.53;;
68475;SDS011;55464;48.266;14.188;2023-05-20T03:42:43;10.90;;;6.55;;
68475;SDS011;55464;48.266;14.188;2023-05-20T03:45:08;11.00;;;7.68;;
68475;SDS011;55464;48.266;14.188;2023-05-20T03:47:34;9.75;;;8.07;;
68475;SDS011;55464;48.266;14.188;2023-05-20T03:49:59;12.05;;;8.05;;
68475;SDS011;55464;48.266;14.188;2023-05-20T03:52:25;12.75;;;8.93;;
68475;SDS011;55464;48.266;14.188;2023-05-20T03:54:50;18.92;;;7.90;;
68475;SDS011;55464;48.266;14.188;2023-05-20T03:57:17;11.90;;;8.57;;
68475;SDS011;55464;48.266;14.188;2023-05-20T03:59:43;10.63;;;8.52;;
68475;SDS011;55464;48.266;14.188;2023-05-20T04:02:09;10.27;;;8.63;;
68475;SDS011;55464;48.266;14.188;2023-05-20T04:04:34;14.00;;;9.00;;
68475;SDS011;55464;48.266;14.188;2023-05-20T04:07:00;14.15;;;9.43;;
68475;SDS011;55464;48.266;14.188;2023-05-20T04:09:26;13.60;;;9.52;;
68475;SDS011;55464;48.266;14.188;2023-05-20T04:11:51;12.98;;;9.40;;
68475;SDS011;55464;48.266;14.188;2023-05-20T04:14:17;16.10;;;9.95;;
68475;SDS011;55464;48.266;14.188;2023-05-20T04:16:43;13.50;;;9.63;;
68475;SDS011;55464;48.266;14.188;2023-05-20T04:19:09;13.45;;;10.07;;
68475;SDS011;55464;48.266;14.188;2023-05-20T04:21:35;19.80;;;9.93;;
68475;SDS011;55464;48.266;14.188;2023-05-20T04:24:01;15.10;;;9.57;;
68475;SDS011;55464;48.266;14.188;2023-05-20T04:26:26;12.65;;;9.15;;
68475;SDS011;55464;48.266;14.188;2023-05-20T04:28:53;16.85;;;10.40;;
68475;SDS011;55464;48.266;14.188;2023-05-20T04:31:19;15.00;;;11.00;;
68475;SDS011;55464;48.266;14.188;2023-05-20T04:33:50;14.57;;;10.35;;
68475;SDS011;55464;48.266;14.188;2023-05-20T04:36:18;15.55;;;11.07;;
68475;SDS011;55464;48.266;14.188;2023-05-20T04:38:44;13.90;;;10.55;;
68475;SDS011;55464;48.266;14.188;2023-05-20T04:41:11;16.95;;;11.88;;
68475;SDS011;55464;48.266;14.188;2023-05-20T04:43:36;16.00;;;10.80;;
68475;SDS011;55464;48.266;14.188;2023-05-20T04:46:04;14.30;;;10.90;;
68475;SDS011;55464;48.266;14.188;2023-05-20T04:48:30;14.05;;;10.75;;
68475;SDS011;55464;48.266;14.188;2023-05-20T04:50:56;14.32;;;10.48;;
68475;SDS011;55464;48.266;14.188;2023-05-20T04:53:21;17.25;;;11.25;;
68475;SDS011;55464;48.266;14.188;2023-05-20T04:55:47;15.93;;;10.95;;
68475;SDS011;55464;48.266;14.188;2023-05-20T04:58:13;20.35;;;12.65;;
68475;SDS011;55464;48.266;14.188;2023-05-20T05:00:41;19.35;;;12.07;;
68475;SDS011;55464;48.266;14.188;2023-05-20T05:03:07;18.50;;;12.82;;
68475;SDS011;55464;48.266;14.188;2023-05-20T05:05:35;18.08;;;13.13;;
68475;SDS011;55464;48.266;14.188;2023-05-20T05:08:02;17.02;;;12.10;;
68475;SDS011;55464;48.266;14.188;2023-05-20T05:10:32;17.13;;;11.65;;
68475;SDS011;55464;48.266;14.188;2023-05-20T05:12:57;16.13;;;12.00;;
68475;SDS011;55464;48.266;14.188;2023-05-20T05:15:23;17.40;;;12.60;;
68475;SDS011;55464;48.266;14.188;2023-05-20T05:17:49;18.23;;;11.98;;
68475;SDS011;55464;48.266;14.188;2023-05-20T05:20:15;17.75;;;12.63;;
68475;SDS011;55464;48.266;14.188;2023-05-20T05:22:40;18.77;;;12.52;;
68475;SDS011;55464;48.266;14.188;2023-05-20T05:25:06;21.17;;;13.43;;
68475;SDS011;55464;48.266;14.188;2023-05-20T05:27:33;20.73;;;13.77;;
68475;SDS011;55464;48.266;14.188;2023-05-20T05:30:00;19.35;;;12.48;;
68475;SDS011;55464;48.266;14.188;2023-05-20T05:32:29;22.10;;;13.73;;
68475;SDS011;55464;48.266;14.188;2023-05-20T05:34:55;18.00;;;12.48;;
68475;SDS011;55464;48.266;14.188;2023-05-20T05:37:20;28.33;;;13.98;;
68475;SDS011;55464;48.266;14.188;2023-05-20T05:39:46;19.02;;;12.77;;
68475;SDS011;55464;48.266;14.188;2023-05-20T05:42:11;20.45;;;13.20;;
68475;SDS011;55464;48.266;14.188;2023-05-20T05:44:37;19.55;;;12.77;;
68475;SDS011;55464;48.266;14.188;2023-05-20T05:47:02;19.75;;;12.95;;
68475;SDS011;55464;48.266;14.188;2023-05-20T05:49:28;19.40;;;13.15;;
68475;SDS011;55464;48.266;14.188;2023-05-20T05:51:53;20.80;;;13.75;;
68475;SDS011;55464;48.266;14.188;2023-05-20T05:54:19;21.25;;;14.40;;
68475;SDS011;55464;48.266;14.188;2023-05-20T05:56:45;19.50;;;14.20;;
68475;SDS011;55464;48.266;14.188;2023-05-20T05:59:10;21.83;;;14.40;;
68475;SDS011;55464;48.266;14.188;2023-05-20T06:01:36;22.00;;;14.20;;
68475;SDS011;55464;48.266;14.188;2023-05-20T06:04:01;22.30;;;14.63;;
68475;SDS011;55464;48.266;14.188;2023-05-20T06:06:27;21.33;;;15.05;;
68475;SDS011;55464;48.266;14.188;2023-05-20T06:08:52;25.70;;;13.52;;
68475;SDS011;55464;48.266;14.188;2023-05-20T06:11:18;21.55;;;14.82;;
68475;SDS011;55464;48.266;14.188;2023-05-20T06:13:44;21.17;;;14.65;;
68475;SDS011;55464;48.266;14.188;2023-05-20T06:16:10;20.00;;;14.10;;
68475;SDS011;55464;48.266;14.188;2023-05-20T06:18:35;23.50;;;15.25;;
68475;SDS011;55464;48.266;14.188;2023-05-20T06:21:01;20.23;;;13.95;;
68475;SDS011;55464;48.266;14.188;2023-05-20T06:23:27;23.38;;;13.90;;
68475;SDS011;55464;48.266;14.188;2023-05-20T06:25:56;21.50;;;14.15;;
68475;SDS011;55464;48.266;14.188;2023-05-20T06:28:22;20.48;;;14.15;;
68475;SDS011;55464;48.266;14.188;2023-05-20T06:30:48;21.13;;;14.55;;
68475;SDS011;55464;48.266;14.188;2023-05-20T06:33:13;22.17;;;14.13;;
68475;SDS011;55464;48.266;14.188;2023-05-20T06:35:39;43.30;;;16.85;;
68475;SDS011;55464;48.266;14.188;2023-05-20T06:38:04;22.67;;;15.38;;
68475;SDS011;55464;48.266;14.188;2023-05-20T06:40:30;25.75;;;14.43;;
68475;SDS011;55464;48.266;14.188;2023-05-20T06:42:55;21.00;;;14.45;;
68475;SDS011;55464;48.266;14.188;2023-05-20T06:45:20;20.48;;;13.45;;
68475;SDS011;55464;48.266;14.188;2023-05-20T06:47:46;19.25;;;12.98;;
68475;SDS011;55464;48.266;14.188;2023-05-20T06:50:14;19.73;;;13.57;;
68475;SDS011;55464;48.266;14.188;2023-05-20T06:52:40;24.77;;;14.45;;
68475;SDS011;55464;48.266;14.188;2023-05-20T06:55:05;20.73;;;13.93;;
68475;SDS011;55464;48.266;14.188;2023-05-20T06:57:31;22.30;;;14.23;;
68475;SDS011;55464;48.266;14.188;2023-05-20T06:59:56;19.70;;;13.40;;
68475;SDS011;55464;48.266;14.188;2023-05-20T07:02:21;18.83;;;12.65;;
68475;SDS011;55464;48.266;14.188;2023-05-20T07:04:47;18.45;;;12.98;;
68475;SDS011;55464;48.266;14.188;2023-05-20T07:07:13;19.75;;;12.40;;
68475;SDS011;55464;48.266;14.188;2023-05-20T07:09:39;17.60;;;12.75;;
68475;SDS011;55464;48.266;14.188;2023-05-20T07:12:04;20.13;;;12.77;;
68475;SDS011;55464;48.266;14.188;2023-05-20T07:14:30;18.38;;;12.68;;
68475;SDS011;55464;48.266;14.188;2023-05-20T07:16:55;21.70;;;12.23;;
68475;SDS011;55464;48.266;14.188;2023-05-20T07:19:21;21.33;;;13.38;;
68475;SDS011;55464;48.266;14.188;2023-05-20T07:21:46;18.42;;;12.48;;
68475;SDS011;55464;48.266;14.188;2023-05-20T07:24:13;19.05;;;11.93;;
68475;SDS011;55464;48.266;14.188;2023-05-20T07:26:39;23.80;;;12.05;;
68475;SDS011;55464;48.266;14.188;2023-05-20T07:29:05;17.52;;;12.60;;
68475;SDS011;55464;48.266;14.188;2023-05-20T07:31:30;16.25;;;11.13;;
68475;SDS011;55464;48.266;14.188;2023-05-20T07:33:56;18.20;;;11.80;;
68475;SDS011;55464;48.266;14.188;2023-05-20T07:36:21;17.00;;;10.73;;
68475;SDS011;55464;48.266;14.188;2023-05-20T07:38:47;16.50;;;11.05;;
68475;SDS011;55464;48.266;14.188;2023-05-20T07:41:12;14.45;;;10.57;;
68475;SDS011;55464;48.266;14.188;2023-05-20T07:43:38;19.08;;;11.70;;
68475;SDS011;55464;48.266;14.188;2023-05-20T07:46:03;16.25;;;11.23;;
68475;SDS011;55464;48.266;14.188;2023-05-20T07:48:29;16.98;;;11.52;;
68475;SDS011;55464;48.266;14.188;2023-05-20T07:50:55;14.13;;;9.60;;
68475;SDS011;55464;48.266;14.188;2023-05-20T07:53:23;11.80;;;8.75;;
68475;SDS011;55464;48.266;14.188;2023-05-20T07:55:49;13.63;;;9.43;;
68475;SDS011;55464;48.266;14.188;2023-05-20T07:58:14;15.40;;;9.65;;
68475;SDS011;55464;48.266;14.188;2023-05-20T08:00:40;12.57;;;9.25;;
68475;SDS011;55464;48.266;14.188;2023-05-20T08:03:05;11.13;;;8.50;;
68475;SDS011;55464;48.266;14.188;2023-05-20T08:05:31;11.98;;;7.72;;
68475;SDS011;55464;48.266;14.188;2023-05-20T08:07:57;10.73;;;7.72;;
68475;SDS011;55464;48.266;14.188;2023-05-20T08:10:22;13.18;;;7.95;;
68475;SDS011;55464;48.266;14.188;2023-05-20T08:12:48;11.18;;;8.35;;
68475;SDS011;55464;48.266;14.188;2023-05-20T08:15:13;10.93;;;7.75;;
68475;SDS011;55464;48.266;14.188;2023-05-20T08:17:39;11.07;;;7.80;;
68475;SDS011;55464;48.266;14.188;2023-05-20T08:20:04;9.70;;;6.85;;
68475;SDS011;55464;48.266;14.188;2023-05-20T08:22:32;11.18;;;8.50;;
68475;SDS011;55464;48.266;14.188;2023-05-20T08:24:57;14.20;;;8.30;;
68475;SDS011;55464;48.266;14.188;2023-05-20T08:27:23;15.27;;;7.60;;
68475;SDS011;55464;48.266;14.188;2023-05-20T08:29:48;9.55;;;7.15;;
68475;SDS011;55464;48.266;14.188;2023-05-20T08:32:14;11.15;;;7.70;;
68475;SDS011;55464;48.266;14.188;2023-05-20T08:34:39;11.50;;;6.97;;
68475;SDS011;55464;48.266;14.188;2023-05-20T08:37:06;11.18;;;6.50;;
68475;SDS011;55464;48.266;14.188;2023-05-20T08:39:32;8.50;;;6.40;;
68475;SDS011;55464;48.266;14.188;2023-05-20T08:41:57;8.93;;;6.53;;
68475;SDS011;55464;48.266;14.188;2023-05-20T08:44:23;10.10;;;7.95;;
68475;SDS011;55464;48.266;14.188;2023-05-20T08:46:49;10.07;;;6.97;;
68475;SDS011;55464;48.266;14.188;2023-05-20T08:49:16;8.57;;;6.43;;
68475;SDS011;55464;48.266;14.188;2023-05-20T08:51:41;7.90;;;6.55;;
68475;SDS011;55464;48.266;14.188;2023-05-20T08:54:07;6.93;;;6.10;;
68475;SDS011;55464;48.266;14.188;2023-05-20T08:56:33;10.50;;;6.35;;
68475;SDS011;55464;48.266;14.188;2023-05-20T08:58:59;8.18;;;6.20;;
68475;SDS011;55464;48.266;14.188;2023-05-20T09:01:25;9.60;;;6.10;;
68475;SDS011;55464;48.266;14.188;2023-05-20T09:03:51;11.23;;;6.25;;
68475;SDS011;55464;48.266;14.188;2023-05-20T09:06:17;9.25;;;6.55;;
68475;SDS011;55464;48.266;14.188;2023-05-20T09:08:48;7.00;;;5.00;;
68475;SDS011;55464;48.266;14.188;2023-05-20T09:11:15;8.27;;;5.80;;
68475;SDS011;55464;48.266;14.188;2023-05-20T09:13:40;9.70;;;5.70;;
68475;SDS011;55464;48.266;14.188;2023-05-20T09:16:06;6.97;;;4.95;;
68475;SDS011;55464;48.266;14.188;2023-05-20T09:18:37;7.43;;;4.80;;
68475;SDS011;55464;48.266;14.188;2023-05-20T09:21:03;6.53;;;5.05;;
68475;SDS011;55464;48.266;14.188;2023-05-20T09:23:31;6.88;;;5.28;;
68475;SDS011;55464;48.266;14.188;2023-05-20T09:25:59;6.60;;;5.45;;
68475;SDS011;55464;48.266;14.188;2023-05-20T09:28:26;9.25;;;5.93;;
68475;SDS011;55464;48.266;14.188;2023-05-20T09:30:57;7.97;;;5.85;;
68475;SDS011;55464;48.266;14.188;2023-05-20T09:33:26;8.30;;;5.35;;
68475;SDS011;55464;48.266;14.188;2023-05-20T09:36:01;7.28;;;5.38;;
68475;SDS011;55464;48.266;14.188;2023-05-20T09:38:28;8.00;;;5.50;;
68475;SDS011;55464;48.266;14.188;2023-05-20T09:41:02;9.13;;;6.50;;
68475;SDS011;55464;48.266;14.188;2023-05-20T09:43:32;6.28;;;5.68;;
68475;SDS011;55464;48.266;14.188;2023-05-20T09:45:58;6.88;;;5.78;;
68475;SDS011;55464;48.266;14.188;2023-05-20T09:48:24;5.82;;;5.30;;
68475;SDS011;55464;48.266;14.188;2023-05-20T09:50:51;9.90;;;5.75;;
68475;SDS011;55464;48.266;14.188;2023-05-20T09:53:19;7.10;;;5.60;;
68475;SDS011;55464;48.266;14.188;2023-05-20T09:55:46;8.95;;;5.60;;
68475;SDS011;55464;48.266;14.188;2023-05-20T09:58:12;10.75;;;5.70;;
68475;SDS011;55464;48.266;14.188;2023-05-20T10:00:38;7.22;;;6.15;;
68475;SDS011;55464;48.266;14.188;2023-05-20T10:03:03;7.68;;;5.45;;
68475;SDS011;55464;48.266;14.188;2023-05-20T10:05:29;7.15;;;5.47;;
68475;SDS011;55464;48.266;14.188;2023-05-20T10:13:48;7.05;;;5.45;;
68475;SDS011;55464;48.266;14.188;2023-05-20T10:22:10;7.47;;;5.35;;
68475;SDS011;55464;48.266;14.188;2023-05-20T10:24:36;7.00;;;5.10;;
68475;SDS011;55464;48.266;14.188;2023-05-20T10:27:07;10.07;;;5.82;;
68475;SDS011;55464;48.266;14.188;2023-05-20T10:32:31;7.78;;;6.45;;
68475;SDS011;55464;48.266;14.188;2023-05-20T10:35:20;8.60;;;6.22;;
68475;SDS011;55464;48.266;14.188;2023-05-20T10:37:46;7.25;;;5.88;;
68475;SDS011;55464;48.266;14.188;2023-05-20T10:40:12;9.45;;;6.30;;
68475;SDS011;55464;48.266;14.188;2023-05-20T10:42:39;7.25;;;6.13;;
68475;SDS011;55464;48.266;14.188;2023-05-20T10:45:05;6.32;;;5.28;;
68475;SDS011;55464;48.266;14.188;2023-05-20T10:47:32;8.95;;;6.43;;
68475;SDS011;55464;48.266;14.188;2023-05-20T10:49:58;8.48;;;6.18;;
68475;SDS011;55464;48.266;14.188;2023-05-20T10:52:25;7.70;;;6.18;;
68475;SDS011;55464;48.266;14.188;2023-05-20T10:57:21;12.63;;;6.68;;
68475;SDS011;55464;48.266;14.188;2023-05-20T10:59:47;14.80;;;7.07;;
68475;SDS011;55464;48.266;14.188;2023-05-20T11:02:17;15.10;;;8.60;;
68475;SDS011;55464;48.266;14.188;2023-05-20T11:04:43;29.45;;;16.60;;
68475;SDS011;55464;48.266;14.188;2023-05-20T11:07:10;10.20;;;7.68;;
68475;SDS011;55464;48.266;14.188;2023-05-20T11:09:36;19.80;;;10.57;;
68475;SDS011;55464;48.266;14.188;2023-05-20T11:12:01;23.50;;;12.05;;
68475;SDS011;55464;48.266;14.188;2023-05-20T11:14:27;24.30;;;8.50;;
68475;SDS011;55464;48.266;14.188;2023-05-20T11:16:57;16.40;;;7.50;;
68475;SDS011;55464;48.266;14.188;2023-05-20T11:19:23;8.27;;;7.22;;
68475;SDS011;55464;48.266;14.188;2023-05-20T11:21:49;7.65;;;6.38;;
68475;SDS011;55464;48.266;14.188;2023-05-20T11:24:21;12.82;;;8.05;;
68475;SDS011;55464;48.266;14.188;2023-05-20T11:26:49;16.38;;;9.00;;
68475;SDS011;55464;48.266;14.188;2023-05-20T11:29:16;13.90;;;7.57;;
68475;SDS011;55464;48.266;14.188;2023-05-20T11:31:44;11.57;;;6.57;;
68475;SDS011;55464;48.266;14.188;2023-05-20T11:34:11;12.52;;;7.45;;
68475;SDS011;55464;48.266;14.188;2023-05-20T11:36:42;8.80;;;5.97;;
68475;SDS011;55464;48.266;14.188;2023-05-20T11:39:11;10.38;;;5.88;;
68475;SDS011;55464;48.266;14.188;2023-05-20T11:41:39;9.57;;;6.35;;
68475;SDS011;55464;48.266;14.188;2023-05-20T11:44:08;9.90;;;6.25;;
68475;SDS011;55464;48.266;14.188;2023-05-20T11:46:40;7.07;;;5.68;;
68475;SDS011;55464;48.266;14.188;2023-05-20T11:49:09;7.43;;;6.43;;
68475;SDS011;55464;48.266;14.188;2023-05-20T11:51:37;8.93;;;5.90;;
68475;SDS011;55464;48.266;14.188;2023-05-20T11:54:04;7.25;;;5.95;;
68475;SDS011;55464;48.266;14.188;2023-05-20T11:56:34;8.35;;;5.22;;
68475;SDS011;55464;48.266;14.188;2023-05-20T11:59:03;9.95;;;5.85;;
68475;SDS011;55464;48.266;14.188;2023-05-20T12:01:31;8.75;;;5.85;;
68475;SDS011;55464;48.266;14.188;2023-05-20T12:03:58;10.88;;;6.50;;
68475;SDS011;55464;48.266;14.188;2023-05-20T12:06:24;7.28;;;5.60;;
68475;SDS011;55464;48.266;14.188;2023-05-20T12:08:49;7.88;;;6.03;;
68475;SDS011;55464;48.266;14.188;2023-05-20T12:11:15;11.32;;;6.63;;
68475;SDS011;55464;48.266;14.188;2023-05-20T12:13:40;9.85;;;6.25;;
68475;SDS011;55464;48.266;14.188;2023-05-20T12:16:06;11.52;;;6.65;;
68475;SDS011;55464;48.266;14.188;2023-05-20T12:18:31;11.95;;;6.25;;
68475;SDS011;55464;48.266;14.188;2023-05-20T12:20:57;8.05;;;6.53;;
68475;SDS011;55464;48.266;14.188;2023-05-20T12:23:23;8.40;;;6.35;;
68475;SDS011;55464;48.266;14.188;2023-05-20T12:25:49;8.35;;;6.88;;
68475;SDS011;55464;48.266;14.188;2023-05-20T12:28:14;8.60;;;6.40;;
68475;SDS011;55464;48.266;14.188;2023-05-20T12:30:41;11.35;;;6.32;;
68475;SDS011;55464;48.266;14.188;2023-05-20T12:33:07;8.93;;;6.13;;
68475;SDS011;55464;48.266;14.188;2023-05-20T12:35:37;7.40;;;6.10;;
68475;SDS011;55464;48.266;14.188;2023-05-20T12:38:04;9.15;;;6.10;;
68475;SDS011;55464;48.266;14.188;2023-05-20T12:40:29;9.43;;;6.00;;
68475;SDS011;55464;48.266;14.188;2023-05-20T12:42:55;14.88;;;6.40;;
68475;SDS011;55464;48.266;14.188;2023-05-20T12:45:20;7.32;;;5.85;;
68475;SDS011;55464;48.266;14.188;2023-05-20T12:47:46;9.05;;;5.57;;
68475;SDS011;55464;48.266;14.188;2023-05-20T12:50:12;8.93;;;5.88;;
68475;SDS011;55464;48.266;14.188;2023-05-20T12:52:37;8.98;;;5.72;;
68475;SDS011;55464;48.266;14.188;2023-05-20T12:55:03;11.45;;;6.40;;
68475;SDS011;55464;48.266;14.188;2023-05-20T12:57:30;10.82;;;5.97;;
68475;SDS011;55464;48.266;14.188;2023-05-20T12:59:56;6.97;;;5.20;;
68475;SDS011;55464;48.266;14.188;2023-05-20T13:02:21;7.35;;;6.07;;
68475;SDS011;55464;48.266;14.188;2023-05-20T13:04:47;10.57;;;5.57;;
68475;SDS011;55464;48.266;14.188;2023-05-20T13:07:12;9.30;;;5.68;;
68475;SDS011;55464;48.266;14.188;2023-05-20T13:09:38;9.13;;;5.65;;
68475;SDS011;55464;48.266;14.188;2023-05-20T13:12:03;8.68;;;6.20;;
68475;SDS011;55464;48.266;14.188;2023-05-20T13:14:29;8.15;;;5.90;;
68475;SDS011;55464;48.266;14.188;2023-05-20T13:16:54;8.95;;;6.15;;
68475;SDS011;55464;48.266;14.188;2023-05-20T13:19:20;7.05;;;6.15;;
68475;SDS011;55464;48.266;14.188;2023-05-20T13:21:47;9.65;;;6.10;;
68475;SDS011;55464;48.266;14.188;2023-05-20T13:24:13;7.90;;;5.72;;
68475;SDS011;55464;48.266;14.188;2023-05-20T13:26:38;9.52;;;6.32;;
68475;SDS011;55464;48.266;14.188;2023-05-20T13:29:05;9.13;;;6.40;;
68475;SDS011;55464;48.266;14.188;2023-05-20T13:31:30;10.32;;;5.80;;
68475;SDS011;55464;48.266;14.188;2023-05-20T13:33:56;8.52;;;6.07;;
68475;SDS011;55464;48.266;14.188;2023-05-20T13:36:24;9.80;;;6.43;;
68475;SDS011;55464;48.266;14.188;2023-05-20T13:38:50;9.40;;;6.30;;
68475;SDS011;55464;48.266;14.188;2023-05-20T13:41:15;16.05;;;6.90;;
68475;SDS011;55464;48.266;14.188;2023-05-20T13:43:41;9.73;;;6.80;;
68475;SDS011;55464;48.266;14.188;2023-05-20T13:46:06;8.95;;;6.97;;
68475;SDS011;55464;48.266;14.188;2023-05-20T13:48:33;9.38;;;6.65;;
68475;SDS011;55464;48.266;14.188;2023-05-20T13:50:58;7.72;;;6.53;;
68475;SDS011;55464;48.266;14.188;2023-05-20T13:53:25;7.25;;;6.10;;
68475;SDS011;55464;48.266;14.188;2023-05-20T13:55:51;7.18;;;6.32;;
68475;SDS011;55464;48.266;14.188;2023-05-20T13:58:17;7.22;;;6.47;;
68475;SDS011;55464;48.266;14.188;2023-05-20T14:00:42;8.75;;;6.88;;
68475;SDS011;55464;48.266;14.188;2023-05-20T14:03:07;8.07;;;6.43;;
68475;SDS011;55464;48.266;14.188;2023-05-20T14:05:34;7.90;;;5.93;;
68475;SDS011;55464;48.266;14.188;2023-05-20T14:08:00;8.15;;;6.40;;
68475;SDS011;55464;48.266;14.188;2023-05-20T14:10:26;9.40;;;6.38;;
68475;SDS011;55464;48.266;14.188;2023-05-20T14:12:52;7.90;;;6.68;;
68475;SDS011;55464;48.266;14.188;2023-05-20T14:15:18;9.15;;;6.75;;
68475;SDS011;55464;48.266;14.188;2023-05-20T14:17:44;11.25;;;7.45;;
68475;SDS011;55464;48.266;14.188;2023-05-20T14:20:10;9.13;;;7.07;;
68475;SDS011;55464;48.266;14.188;2023-05-20T14:22:35;11.45;;;6.35;;
68475;SDS011;55464;48.266;14.188;2023-05-20T14:25:01;12.90;;;6.60;;
68475;SDS011;55464;48.266;14.188;2023-05-20T14:27:26;8.85;;;6.78;;
68475;SDS011;55464;48.266;14.188;2023-05-20T14:29:53;9.45;;;6.32;;
68475;SDS011;55464;48.266;14.188;2023-05-20T14:32:18;11.70;;;6.50;;
68475;SDS011;55464;48.266;14.188;2023-05-20T14:34:44;17.00;;;7.50;;
68475;SDS011;55464;48.266;14.188;2023-05-20T14:37:09;13.68;;;8.73;;